createdAt,value
2022-10-18T00:01:17.088Z,64.00
2022-10-18T00:03:46.957Z,64.60
2022-10-18T00:06:15.536Z,64.80
2022-10-18T00:08:44.001Z,65.38
2022-10-18T00:11:12.486Z,65.57
2022-10-18T00:13:40.928Z,66.25
2022-10-18T00:16:14.058Z,66.40
2022-10-18T00:18:43.255Z,66.35
2022-10-18T00:21:15.836Z,66.24
2022-10-18T00:23:45.295Z,65.76
2022-10-18T00:26:15.934Z,66.60
2022-10-18T00:28:46.284Z,66.18
2022-10-18T00:31:16.967Z,65.21
2022-10-18T00:33:47.127Z,66.82
2022-10-18T00:36:17.102Z,66.42
2022-10-18T00:38:46.291Z,65.16
2022-10-18T00:41:17.143Z,65.00
2022-10-18T00:43:57.513Z,64.29
2022-10-18T00:46:28.101Z,64.65
2022-10-18T00:48:57.692Z,66.16
2022-10-18T00:51:31.219Z,65.33
2022-10-18T00:54:00.042Z,65.35
2022-10-18T00:56:28.879Z,66.03
2022-10-18T00:58:57.084Z,64.80
2022-10-18T01:01:28.369Z,65.70
2022-10-18T01:03:58.070Z,65.91
2022-10-18T01:06:29.719Z,66.19
2022-10-18T01:09:11.294Z,65.75
2022-10-18T01:11:56.125Z,66.80
2022-10-18T01:14:39.871Z,66.69
2022-10-18T01:17:15.923Z,65.70
2022-10-18T01:20:18.690Z,65.83
2022-10-18T01:22:55.477Z,66.22
2022-10-18T01:25:37.994Z,66.30
2022-10-18T01:28:17.331Z,66.11
2022-10-18T01:30:55.551Z,65.51
2022-10-18T01:33:38.941Z,65.04
2022-10-18T01:36:13.273Z,65.50
2022-10-18T01:38:44.837Z,66.19
2022-10-18T01:41:16.133Z,66.79
2022-10-18T01:43:47.696Z,66.88
2022-10-18T01:46:22.596Z,67.08
2022-10-18T01:48:52.808Z,67.49
2022-10-18T01:51:24.466Z,67.17
2022-10-18T01:53:53.040Z,67.67
2022-10-18T01:56:32.503Z,68.33
2022-10-18T01:59:45.713Z,68.13
2022-10-18T02:02:26.635Z,68.40
2022-10-18T02:05:03.528Z,67.55
2022-10-18T02:07:41.177Z,67.82
2022-10-18T02:10:12.484Z,68.08
2022-10-18T02:12:44.787Z,67.16
2022-10-18T02:15:18.758Z,68.23
2022-10-18T02:17:48.654Z,68.29
2022-10-18T02:20:21.140Z,68.33
2022-10-18T02:22:52.246Z,67.84
2022-10-18T02:25:25.167Z,67.28
2022-10-18T02:27:56.613Z,66.37
2022-10-18T02:30:31.734Z,65.47
2022-10-18T02:33:07.585Z,66.24
2022-10-18T02:35:41.869Z,66.98
2022-10-18T02:38:12.784Z,67.70
2022-10-18T02:40:41.332Z,68.02
2022-10-18T02:43:09.824Z,66.62
2022-10-18T02:45:38.252Z,66.53
2022-10-18T02:48:08.796Z,67.04
2022-10-18T02:50:37.168Z,66.62
2022-10-18T02:53:05.567Z,65.66
2022-10-18T02:55:33.893Z,66.99
2022-10-18T02:58:04.133Z,67.69
2022-10-18T03:00:32.582Z,66.71
2022-10-18T03:03:00.938Z,65.73
2022-10-18T03:05:30.744Z,66.95
2022-10-18T03:07:59.119Z,67.27
2022-10-18T03:10:27.584Z,65.82
2022-10-18T03:12:56.042Z,65.86
2022-10-18T03:15:24.412Z,67.21
2022-10-18T03:17:52.891Z,67.38
2022-10-18T03:20:21.307Z,67.51
2022-10-18T03:22:51.138Z,67.29
2022-10-18T03:25:19.761Z,67.15
2022-10-18T03:27:48.153Z,67.09
2022-10-18T03:30:16.497Z,67.32
2022-10-18T03:32:44.935Z,67.29
2022-10-18T03:35:13.318Z,68.24
2022-10-18T03:37:42.864Z,66.78
2022-10-18T03:40:13.225Z,66.77
2022-10-18T03:42:41.714Z,66.26
2022-10-18T03:45:10.966Z,67.11
2022-10-18T03:47:39.531Z,66.64
2022-10-18T03:50:08.211Z,66.25
2022-10-18T03:52:36.674Z,67.29
2022-10-18T03:55:05.741Z,68.20
2022-10-18T03:57:35.515Z,67.45
2022-10-18T04:00:04.034Z,66.92
2022-10-18T04:02:41.033Z,67.03
2022-10-18T04:05:09.523Z,67.34
2022-10-18T04:07:38.064Z,66.73
2022-10-18T04:10:07.239Z,66.25
2022-10-18T04:12:37.080Z,65.63
2022-10-18T04:15:06.108Z,65.89
2022-10-18T04:17:34.758Z,66.50
2022-10-18T04:20:03.147Z,65.81
2022-10-18T04:22:31.748Z,65.31
2022-10-18T04:25:00.211Z,64.92
2022-10-18T04:27:28.754Z,63.62
2022-10-18T04:29:58.664Z,64.53
2022-10-18T04:32:29.497Z,65.01
2022-10-18T04:34:57.979Z,64.88
2022-10-18T04:37:26.402Z,64.07
2022-10-18T04:39:54.811Z,64.81
2022-10-18T04:42:23.306Z,65.05
2022-10-18T04:44:52.200Z,65.52
2022-10-18T04:47:21.732Z,64.87
2022-10-18T04:49:50.124Z,65.22
2022-10-18T04:52:18.790Z,65.62
2022-10-18T04:54:47.196Z,64.57
2022-10-18T04:57:15.565Z,64.19
2022-10-18T04:59:44.032Z,62.76
2022-10-18T05:02:12.604Z,63.21
2022-10-18T05:04:42.353Z,62.98
2022-10-18T05:07:10.748Z,62.45
2022-10-18T05:09:39.102Z,63.60
2022-10-18T05:12:07.778Z,63.39
2022-10-18T05:14:36.244Z,64.25
2022-10-18T05:17:04.711Z,62.73
2022-10-18T05:19:33.192Z,63.33
2022-10-18T05:22:03.042Z,63.25
2022-10-18T05:24:31.487Z,63.40
2022-10-18T05:26:59.947Z,62.69
2022-10-18T05:29:28.602Z,62.48
2022-10-18T05:31:57.081Z,63.77
2022-10-18T05:34:27.392Z,63.92
2022-10-18T05:36:55.790Z,63.30
2022-10-18T05:39:25.606Z,62.19
2022-10-18T05:41:54.082Z,61.71
2022-10-18T05:44:22.621Z,61.02
2022-10-18T05:46:51.037Z,61.09
2022-10-18T05:49:19.593Z,61.95
2022-10-18T05:51:47.996Z,60.69
2022-10-18T05:54:16.939Z,60.77
2022-10-18T05:56:46.693Z,62.17
2022-10-18T05:59:15.087Z,62.71
2022-10-18T06:01:44.301Z,62.29
2022-10-18T06:04:12.902Z,62.39
2022-10-18T06:06:41.323Z,63.41
2022-10-18T06:09:09.804Z,63.10
2022-10-18T06:11:38.449Z,63.47
2022-10-18T06:14:09.503Z,62.39
2022-10-18T06:19:11.348Z,62.20
2022-10-18T06:21:39.676Z,62.09
2022-10-18T06:24:08.302Z,61.64
2022-10-18T06:26:36.636Z,61.17
2022-10-18T06:29:05.130Z,60.58
2022-10-18T06:31:34.962Z,61.30
2022-10-18T06:34:03.357Z,62.50
2022-10-18T06:36:31.981Z,64.00
2022-10-18T06:39:00.414Z,62.18
2022-10-18T06:41:28.899Z,63.29
2022-10-18T06:44:13.737Z,62.32
2022-10-18T06:46:48.440Z,64.31
2022-10-18T06:49:19.196Z,65.06
2022-10-18T06:51:48.152Z,64.96
2022-10-18T06:54:18.665Z,66.96
2022-10-18T06:56:47.971Z,66.90
2022-10-18T06:59:16.680Z,68.00
2022-10-18T07:01:46.297Z,67.22
2022-10-18T07:04:14.801Z,67.07
2022-10-18T07:06:43.188Z,66.19
2022-10-18T07:09:11.545Z,65.80
2022-10-18T07:11:40.049Z,66.87
2022-10-18T07:14:08.836Z,67.75
2022-10-18T07:16:38.816Z,68.46
2022-10-18T07:19:08.637Z,69.48
2022-10-18T07:21:37.166Z,68.28
2022-10-18T07:24:05.765Z,70.46
2022-10-18T07:26:35.919Z,69.58
2022-10-18T07:29:09.001Z,68.46
2022-10-18T07:31:38.614Z,69.44
2022-10-18T07:34:09.967Z,69.78
2022-10-18T07:36:38.450Z,70.56
2022-10-18T07:39:07.245Z,71.09
2022-10-18T07:41:35.782Z,70.01
2022-10-18T07:44:05.316Z,72.06
2022-10-18T07:46:33.758Z,71.07
2022-10-18T07:49:02.259Z,69.29
2022-10-18T07:51:32.985Z,71.47
2022-10-18T07:54:01.400Z,71.61
2022-10-18T07:56:29.909Z,70.38
2022-10-18T07:58:58.479Z,71.14
2022-10-18T08:01:27.247Z,70.47
2022-10-18T08:03:55.766Z,70.16
2022-10-18T08:06:25.139Z,71.16
2022-10-18T08:08:55.076Z,69.79
2022-10-18T08:11:25.089Z,69.89
2022-10-18T08:13:54.771Z,69.68
2022-10-18T08:16:25.465Z,68.56
2022-10-18T08:19:01.454Z,68.41
2022-10-18T08:21:30.032Z,70.35
2022-10-18T08:23:59.865Z,70.20
2022-10-18T08:26:28.346Z,69.73
2022-10-18T08:29:17.497Z,69.26
2022-10-18T08:31:45.387Z,70.08
2022-10-18T08:34:17.307Z,70.93
2022-10-18T08:36:48.082Z,70.66
2022-10-18T08:39:17.816Z,71.03
2022-10-18T08:42:09.302Z,71.84
2022-10-18T08:44:45.298Z,71.64
2022-10-18T08:47:18.120Z,70.47
2022-10-18T08:49:50.588Z,69.75
2022-10-18T08:52:29.531Z,69.13
2022-10-18T08:55:04.707Z,69.65
2022-10-18T08:57:34.387Z,70.20
2022-10-18T09:00:04.425Z,70.43
2022-10-18T09:02:44.276Z,69.64
2022-10-18T09:05:24.039Z,69.47
2022-10-18T09:08:17.023Z,68.84
2022-10-18T09:13:58.394Z,69.41
2022-10-18T09:16:35.978Z,68.17
2022-10-18T09:19:17.328Z,69.18
2022-10-18T09:21:53.446Z,68.43
2022-10-18T09:24:28.981Z,67.68
2022-10-18T09:27:07.920Z,67.06
2022-10-18T09:29:49.369Z,66.72
2022-10-18T09:32:34.095Z,66.08
2022-10-18T09:35:06.432Z,66.45
2022-10-18T09:37:36.361Z,67.87
2022-10-18T09:40:18.138Z,66.78
2022-10-18T09:42:56.672Z,68.36
2022-10-18T09:45:30.717Z,65.61
2022-10-18T09:48:08.985Z,67.23
2022-10-18T09:50:42.505Z,66.60
2022-10-18T09:53:19.894Z,65.14
2022-10-18T09:56:00.795Z,66.97
2022-10-18T09:58:41.258Z,66.87
2022-10-18T10:01:11.454Z,67.29
2022-10-18T10:03:40.617Z,67.47
2022-10-18T10:06:25.454Z,66.91
2022-10-18T10:09:02.705Z,65.55
2022-10-18T10:11:35.210Z,65.01
2022-10-18T10:16:55.997Z,65.76
2022-10-18T10:19:28.579Z,65.41
2022-10-18T10:22:10.706Z,64.83
2022-10-18T10:24:49.537Z,66.08
2022-10-18T10:27:20.186Z,64.30
2022-10-18T10:30:01.490Z,65.76
2022-10-18T10:32:47.196Z,65.41
2022-10-18T10:38:27.069Z,64.71
2022-10-18T10:40:56.314Z,65.11
2022-10-18T10:43:42.817Z,67.27
2022-10-18T10:46:15.388Z,66.23
2022-10-18T10:48:52.155Z,68.29
2022-10-18T10:51:31.764Z,67.23
2022-10-18T10:54:03.594Z,66.83
2022-10-18T10:56:34.929Z,67.60
2022-10-18T10:59:11.601Z,67.27
2022-10-18T11:01:41.829Z,66.57
2022-10-18T11:04:29.037Z,66.84
2022-10-18T11:07:08.301Z,67.51
2022-10-18T11:09:50.187Z,67.64
2022-10-18T11:12:25.336Z,68.16
2022-10-18T11:15:00.855Z,69.56
2022-10-18T11:17:37.291Z,69.45
2022-10-18T11:20:28.220Z,69.61
2022-10-18T11:23:03.256Z,69.70
2022-10-18T11:26:00.042Z,69.60
2022-10-18T11:28:40.766Z,71.80
2022-10-18T11:31:18.393Z,70.81
2022-10-18T11:34:09.274Z,70.02
2022-10-18T11:36:56.413Z,68.36
2022-10-18T11:39:45.081Z,68.54
2022-10-18T11:42:21.772Z,68.48
2022-10-18T11:45:00.367Z,71.72
2022-10-18T11:47:39.563Z,70.16
2022-10-18T11:50:26.698Z,69.65
2022-10-18T11:53:04.953Z,69.18
2022-10-18T11:55:49.966Z,68.50
2022-10-18T11:58:30.267Z,68.33
2022-10-18T12:01:04.976Z,67.54
2022-10-18T12:03:41.707Z,66.61
2022-10-18T12:06:16.874Z,67.42
2022-10-18T12:08:50.137Z,67.04
2022-10-18T12:11:22.589Z,66.19
2022-10-18T12:13:54.864Z,67.83
2022-10-18T12:16:49.253Z,66.60
2022-10-18T12:19:23.625Z,67.51
2022-10-18T12:21:58.153Z,65.77
2022-10-18T12:24:30.140Z,66.27
2022-10-18T12:27:02.002Z,65.51
2022-10-18T12:29:38.478Z,65.13
2022-10-18T12:32:10.193Z,65.22
2022-10-18T12:34:44.134Z,65.63
2022-10-18T12:37:29.528Z,66.11
2022-10-18T12:40:13.220Z,66.73
2022-10-18T12:42:46.600Z,67.02
2022-10-18T12:45:32.452Z,67.83
2022-10-18T12:48:02.368Z,68.85
2022-10-18T12:50:35.017Z,69.90
2022-10-18T12:53:09.033Z,71.14
2022-10-18T12:55:39.216Z,71.74
2022-10-18T12:58:25.781Z,70.95
2022-10-18T13:00:56.350Z,76.42
2022-10-18T13:03:54.618Z,74.32
2022-10-18T13:06:24.007Z,74.02
2022-10-18T13:09:22.277Z,76.34
2022-10-18T13:11:52.869Z,73.48
2022-10-18T13:15:12.734Z,74.17
2022-10-18T13:17:53.326Z,73.48
2022-10-18T13:20:28.104Z,73.83
2022-10-18T13:23:09.890Z,75.04
2022-10-18T13:25:52.842Z,74.35
2022-10-18T13:28:28.860Z,75.23
2022-10-18T13:31:02.906Z,72.19
2022-10-18T13:33:34.581Z,72.04
2022-10-18T13:36:05.811Z,73.05
2022-10-18T13:38:48.630Z,74.16
2022-10-18T13:41:21.330Z,74.15
2022-10-18T13:44:13.151Z,73.74
2022-10-18T13:47:20.312Z,72.02
2022-10-18T13:50:31.776Z,72.19
2022-10-18T13:53:45.789Z,72.36
2022-10-18T13:56:35.637Z,72.90
2022-10-18T13:59:19.346Z,71.81
2022-10-18T14:01:58.669Z,73.11
2022-10-18T14:04:52.531Z,71.78
2022-10-18T14:07:21.451Z,71.52
2022-10-18T14:09:52.496Z,72.97
2022-10-18T14:12:30.301Z,73.53
2022-10-18T14:15:06.577Z,73.06
2022-10-18T14:17:41.056Z,73.11
2022-10-18T14:20:28.631Z,72.19
2022-10-18T14:23:06.368Z,72.74
2022-10-18T14:25:36.935Z,72.00
2022-10-18T14:28:12.590Z,71.87
2022-10-18T14:30:55.648Z,71.35
2022-10-18T14:33:35.128Z,72.53
2022-10-18T14:36:10.358Z,72.09
2022-10-18T14:38:50.078Z,71.11
2022-10-18T14:41:23.436Z,69.35
2022-10-18T14:43:55.030Z,70.03
2022-10-18T14:46:29.020Z,70.14
2022-10-18T14:49:02.200Z,70.06
2022-10-18T14:51:34.634Z,71.46
2022-10-18T14:54:04.402Z,70.09
2022-10-18T14:56:38.180Z,70.45
2022-10-18T14:59:17.873Z,69.66
2022-10-18T15:01:55.910Z,71.16
2022-10-18T15:04:31.149Z,70.44
2022-10-18T15:07:01.326Z,70.79
2022-10-18T15:09:31.298Z,70.66
2022-10-18T15:12:00.798Z,69.58
2022-10-18T15:14:31.969Z,69.86
2022-10-18T15:17:03.941Z,70.18
2022-10-18T15:19:35.203Z,68.94
2022-10-18T15:22:31.180Z,69.63
2022-10-18T15:25:18.143Z,69.47
2022-10-18T15:27:48.983Z,67.67
2022-10-18T15:30:28.136Z,67.59
2022-10-18T15:32:58.146Z,67.88
2022-10-18T15:35:29.428Z,68.28
2022-10-18T15:38:00.313Z,68.05
2022-10-18T15:40:46.887Z,69.93
2022-10-18T15:43:35.162Z,68.86
2022-10-18T15:46:07.304Z,67.00
2022-10-18T15:48:39.187Z,67.63
2022-10-18T15:51:08.891Z,68.71
2022-10-18T15:53:45.387Z,68.34
2022-10-18T15:56:32.889Z,67.99
2022-10-18T15:59:04.168Z,65.47
2022-10-18T16:01:44.979Z,68.40
2022-10-18T16:04:21.250Z,65.21
2022-10-18T16:06:49.833Z,65.80
2022-10-18T16:09:20.424Z,66.35
2022-10-18T16:11:54.291Z,66.20
2022-10-18T16:14:26.977Z,65.41
2022-10-18T16:17:18.747Z,64.99
2022-10-18T16:19:47.314Z,66.41
2022-10-18T16:22:15.807Z,65.00
2022-10-18T16:24:44.246Z,65.34
2022-10-18T16:27:12.635Z,66.78
2022-10-18T16:29:41.693Z,65.37
2022-10-18T16:32:11.668Z,65.79
2022-10-18T16:34:40.229Z,66.01
2022-10-18T16:37:08.704Z,65.77
2022-10-18T16:39:37.264Z,66.01
2022-10-18T16:42:05.976Z,66.80
2022-10-18T16:44:34.513Z,66.13
2022-10-18T16:47:03.194Z,66.53
2022-10-18T16:49:33.505Z,67.05
2022-10-18T16:52:02.083Z,65.56
2022-10-18T16:54:30.557Z,65.70
2022-10-18T16:56:59.127Z,65.66
2022-10-18T16:59:29.615Z,65.48
2022-10-18T17:01:58.901Z,64.44
2022-10-18T17:04:27.580Z,65.30
2022-10-18T17:06:59.456Z,66.16
2022-10-18T17:09:28.126Z,64.69
2022-10-18T17:11:56.726Z,64.26
2022-10-18T17:14:25.218Z,63.91
2022-10-18T17:16:55.911Z,63.10
2022-10-18T17:19:24.806Z,62.43
2022-10-18T17:21:53.416Z,62.67
2022-10-18T17:24:23.481Z,62.50
2022-10-18T17:26:52.224Z,61.92
2022-10-18T17:29:20.777Z,62.07
2022-10-18T17:31:49.400Z,62.04
2022-10-18T17:34:21.420Z,61.43
2022-10-18T17:36:50.282Z,63.48
2022-10-18T17:39:18.824Z,63.83
2022-10-18T17:41:49.072Z,63.89
2022-10-18T17:44:18.353Z,62.38
2022-10-18T17:46:46.921Z,62.04
2022-10-18T17:49:16.945Z,62.77
2022-10-18T17:51:46.593Z,62.74
2022-10-18T17:54:15.581Z,62.44
2022-10-18T17:56:45.331Z,62.16
2022-10-18T17:59:16.013Z,61.74
2022-10-18T18:04:15.093Z,61.81
2022-10-18T18:06:45.662Z,61.69
2022-10-18T18:09:17.986Z,62.37
2022-10-18T18:11:49.560Z,62.18
2022-10-18T18:14:20.479Z,61.44
2022-10-18T18:16:50.114Z,63.24
2022-10-18T18:19:20.518Z,61.88
2022-10-18T18:21:53.731Z,62.04
2022-10-18T18:24:25.050Z,60.96
2022-10-18T18:26:54.496Z,61.72
2022-10-18T18:29:26.582Z,62.70
2022-10-18T18:31:56.095Z,62.85
2022-10-18T18:34:25.496Z,62.54
2022-10-18T18:36:54.709Z,62.71
2022-10-18T18:39:25.986Z,63.07
2022-10-18T18:41:55.151Z,62.62
2022-10-18T18:44:25.997Z,62.68
2022-10-18T18:46:54.960Z,62.67
2022-10-18T18:49:23.485Z,63.18
2022-10-18T18:51:52.330Z,62.52
2022-10-18T18:54:22.211Z,62.89
2022-10-18T18:56:50.936Z,64.43
2022-10-18T18:59:20.241Z,64.84
2022-10-18T19:01:50.683Z,64.20
2022-10-18T19:04:19.608Z,63.25
2022-10-18T19:06:50.900Z,63.29
2022-10-18T19:09:22.303Z,62.79
2022-10-18T19:11:53.578Z,62.32
2022-10-18T19:14:24.522Z,62.18
2022-10-18T19:16:57.658Z,62.25
2022-10-18T19:19:28.712Z,62.47
2022-10-18T19:21:58.942Z,63.14
2022-10-18T19:24:30.420Z,63.41
2022-10-18T19:27:00.942Z,63.28
2022-10-18T19:29:31.046Z,62.66
2022-10-18T19:32:02.154Z,64.22
2022-10-18T19:34:32.254Z,64.96
2022-10-18T19:37:00.772Z,64.54
2022-10-18T19:39:31.703Z,63.93
2022-10-18T19:42:03.343Z,66.00
2022-10-18T19:44:36.067Z,65.75
2022-10-18T19:47:07.284Z,65.16
2022-10-18T19:49:35.733Z,65.19
2022-10-18T19:52:04.211Z,65.38
2022-10-18T19:54:32.769Z,64.85
2022-10-18T19:57:01.203Z,64.71
2022-10-18T19:59:29.887Z,63.98
2022-10-18T20:02:00.634Z,64.75
2022-10-18T20:04:34.333Z,64.34
2022-10-18T20:07:05.770Z,64.19
2022-10-18T20:09:34.329Z,64.85
2022-10-18T20:12:02.860Z,66.41
2022-10-18T20:14:31.334Z,66.78
2022-10-18T20:16:59.738Z,65.01
2022-10-18T20:19:28.314Z,64.54
2022-10-18T20:21:58.956Z,62.61
2022-10-18T20:24:27.579Z,62.11
2022-10-18T20:26:56.109Z,62.51
2022-10-18T20:29:25.614Z,65.13
2022-10-18T20:31:55.747Z,64.82
2022-10-18T20:34:29.822Z,64.27
2022-10-18T20:36:59.771Z,66.44
2022-10-18T20:39:28.441Z,65.77
2022-10-18T20:41:56.887Z,65.26
2022-10-18T20:44:27.101Z,67.34
2022-10-18T20:46:55.599Z,67.49
2022-10-18T20:49:23.997Z,67.24
2022-10-18T20:51:54.955Z,68.36
2022-10-18T20:54:25.024Z,66.29
2022-10-18T20:56:53.558Z,67.60
2022-10-18T20:59:24.995Z,65.97
2022-10-18T21:01:53.517Z,65.94
2022-10-18T21:04:24.266Z,63.28
2022-10-18T21:06:55.240Z,62.38
2022-10-18T21:09:25.405Z,62.12
2022-10-18T21:11:54.860Z,61.82
2022-10-18T21:14:26.899Z,62.34
2022-10-18T21:16:58.582Z,62.38
2022-10-18T21:19:28.434Z,62.79
2022-10-18T21:21:58.802Z,62.54
2022-10-18T21:24:30.103Z,62.35
2022-10-18T21:26:59.220Z,62.23
2022-10-18T21:29:27.832Z,62.03
2022-10-18T21:31:59.694Z,61.18
2022-10-18T21:34:30.742Z,60.36
2022-10-18T21:36:59.525Z,60.22
2022-10-18T21:39:30.224Z,60.53
2022-10-18T21:41:58.944Z,61.17
2022-10-18T21:44:27.727Z,61.77
2022-10-18T21:46:57.060Z,60.88
2022-10-18T21:49:26.407Z,60.94
2022-10-18T21:51:54.835Z,60.44
2022-10-18T21:54:23.204Z,61.10
2022-10-18T21:56:53.045Z,60.83
2022-10-18T21:59:21.641Z,61.11
2022-10-18T22:01:50.024Z,61.04
2022-10-18T22:04:21.769Z,60.44
2022-10-18T22:06:50.944Z,63.15
2022-10-18T22:09:19.627Z,62.73
2022-10-18T22:11:50.827Z,64.84
2022-10-18T22:14:21.037Z,68.12
2022-10-18T22:16:52.451Z,68.49
2022-10-18T22:19:21.661Z,67.53
2022-10-18T22:21:50.437Z,66.15
2022-10-18T22:24:19.088Z,63.34
2022-10-18T22:26:47.948Z,61.42
2022-10-18T22:29:17.037Z,60.20
2022-10-18T22:31:47.394Z,59.30
2022-10-18T22:34:16.558Z,58.72
2022-10-18T22:36:44.609Z,58.02
2022-10-18T22:39:14.499Z,56.93
2022-10-18T22:41:43.243Z,56.59
2022-10-18T22:44:12.511Z,56.64
2022-10-18T22:46:40.657Z,56.56
2022-10-18T22:49:10.178Z,56.34
2022-10-18T22:51:38.325Z,56.41
2022-10-18T22:54:06.414Z,56.36
2022-10-18T22:56:35.656Z,55.58
2022-10-18T22:59:03.762Z,56.09
2022-10-18T23:01:31.807Z,56.02
2022-10-18T23:04:00.644Z,56.29
2022-10-18T23:06:30.920Z,56.80
2022-10-18T23:08:59.947Z,56.52
2022-10-18T23:11:28.944Z,56.65
2022-10-18T23:13:57.036Z,57.30
2022-10-18T23:16:25.361Z,56.91
2022-10-18T23:18:54.543Z,57.07
2022-10-18T23:21:24.485Z,57.26
2022-10-18T23:23:54.601Z,57.32
2022-10-18T23:26:23.597Z,56.30
2022-10-18T23:28:52.796Z,56.18
2022-10-18T23:31:21.712Z,55.78
2022-10-18T23:33:50.897Z,55.58
2022-10-18T23:36:19.155Z,55.07
2022-10-18T23:38:50.606Z,55.26
2022-10-18T23:41:20.463Z,56.97
2022-10-18T23:43:48.747Z,57.07
2022-10-18T23:46:17.490Z,57.17
2022-10-18T23:48:45.972Z,58.00
2022-10-18T23:51:14.270Z,57.54
2022-10-18T23:53:42.639Z,57.83
2022-10-18T23:56:11.718Z,57.44
2022-10-18T23:58:41.349Z,57.00
